Startpagina
METAR-TAF:

METAR-TAF

Vliegvelden :

Srinagar, India

breedte: 33-59-14N, lengte: 074-46-27E, hoogte: 1655 m

Actueel weer

Dit bericht is 9 uur en het 7 minuten geleden gemaakt, om 09:30 UTC
Wind 4 kt uit het oosten
Temperatuur 11°C
Vochtigheid 47%
Druk 1021 hPa
Zicht: 6000 m
Weinig wolken op 3000 ft

METAR: VISR 160930Z 08004KT 6000 FEW030 11/00 Q1021 NOSIG

Tijdstip: 00:07 (18:37 UTC)


TAF: ontbreekt

Waarnemingen en weersverwachtingen van meer dan 4000 vliegvelden (METAR en TAF).

De beschikbare stations zijn de gele en rode punten op de kaart.

Ga met uw muis naar het station om de naam te zien.

Klik dan om waarnemingen en weersverwachtingen te zien.

kaart wijzigen: klik op de groene knoppen met een zwart kruis om in te zoomen, op de groene knop met een streepje om uit te zoomen of op de groene pijlen voor aangrenzende kaarten.


METAR-TAF: